sensor_id;sensor_type;location;lat;lon;timestamp;temperature;humidity
30148;DHT22;16960;49.404;8.248;2022-11-15T00:00:45;19.70;48.10
30148;DHT22;16960;49.404;8.248;2022-11-15T00:03:14;19.70;48.10
30148;DHT22;16960;49.404;8.248;2022-11-15T00:05:41;19.70;48.10
30148;DHT22;16960;49.404;8.248;2022-11-15T00:08:08;19.70;48.20
30148;DHT22;16960;49.404;8.248;2022-11-15T00:10:35;19.70;48.20
30148;DHT22;16960;49.404;8.248;2022-11-15T00:13:05;19.70;48.30
30148;DHT22;16960;49.404;8.248;2022-11-15T00:15:35;19.70;48.30
30148;DHT22;16960;49.404;8.248;2022-11-15T00:18:03;19.70;48.40
30148;DHT22;16960;49.404;8.248;2022-11-15T00:20:30;19.70;48.40
30148;DHT22;16960;49.404;8.248;2022-11-15T00:22:57;19.70;48.40
30148;DHT22;16960;49.404;8.248;2022-11-15T00:25:24;19.70;48.50
30148;DHT22;16960;49.404;8.248;2022-11-15T00:27:55;19.70;48.50
30148;DHT22;16960;49.404;8.248;2022-11-15T00:30:22;19.70;48.50
30148;DHT22;16960;49.404;8.248;2022-11-15T00:32:50;19.70;48.50
30148;DHT22;16960;49.404;8.248;2022-11-15T00:35:17;19.70;48.50
30148;DHT22;16960;49.404;8.248;2022-11-15T00:37:45;19.70;48.40
30148;DHT22;16960;49.404;8.248;2022-11-15T00:40:13;19.70;48.50
30148;DHT22;16960;49.404;8.248;2022-11-15T00:42:40;19.70;48.40
30148;DHT22;16960;49.404;8.248;2022-11-15T00:45:08;19.70;48.40
30148;DHT22;16960;49.404;8.248;2022-11-15T00:47:35;19.70;48.40
30148;DHT22;16960;49.404;8.248;2022-11-15T00:50:04;19.70;48.40
30148;DHT22;16960;49.404;8.248;2022-11-15T00:52:31;19.70;48.40
30148;DHT22;16960;49.404;8.248;2022-11-15T00:54:58;19.70;48.40
30148;DHT22;16960;49.404;8.248;2022-11-15T00:57:25;19.70;48.30
30148;DHT22;16960;49.404;8.248;2022-11-15T00:59:51;19.70;48.40
30148;DHT22;16960;49.404;8.248;2022-11-15T01:02:18;19.70;48.30
30148;DHT22;16960;49.404;8.248;2022-11-15T01:04:45;19.70;48.30
30148;DHT22;16960;49.404;8.248;2022-11-15T01:07:14;19.70;48.30
30148;DHT22;16960;49.404;8.248;2022-11-15T01:09:40;19.80;48.20
30148;DHT22;16960;49.404;8.248;2022-11-15T01:12:07;19.80;48.30
30148;DHT22;16960;49.404;8.248;2022-11-15T01:14:34;19.80;48.20
30148;DHT22;16960;49.404;8.248;2022-11-15T01:17:01;19.80;48.20
30148;DHT22;16960;49.404;8.248;2022-11-15T01:19:28;19.70;48.20
30148;DHT22;16960;49.404;8.248;2022-11-15T01:21:55;19.80;48.20
30148;DHT22;16960;49.404;8.248;2022-11-15T01:24:23;19.80;48.30
30148;DHT22;16960;49.404;8.248;2022-11-15T01:26:50;19.80;48.20
30148;DHT22;16960;49.404;8.248;2022-11-15T01:29:17;19.80;48.20
30148;DHT22;16960;49.404;8.248;2022-11-15T01:31:44;19.70;48.20
30148;DHT22;16960;49.404;8.248;2022-11-15T01:34:11;19.80;48.20
30148;DHT22;16960;49.404;8.248;2022-11-15T01:36:38;19.80;48.30
30148;DHT22;16960;49.404;8.248;2022-11-15T01:39:05;19.80;48.30
30148;DHT22;16960;49.404;8.248;2022-11-15T01:41:33;19.80;48.40
30148;DHT22;16960;49.404;8.248;2022-11-15T01:47:03;19.80;48.40
30148;DHT22;16960;49.404;8.248;2022-11-15T01:49:33;19.80;48.30
30148;DHT22;16960;49.404;8.248;2022-11-15T01:52:05;19.80;48.30
30148;DHT22;16960;49.404;8.248;2022-11-15T01:54:34;19.70;48.30
30148;DHT22;16960;49.404;8.248;2022-11-15T01:57:05;19.80;48.30
30148;DHT22;16960;49.404;8.248;2022-11-15T01:59:33;19.80;48.30
30148;DHT22;16960;49.404;8.248;2022-11-15T02:02:00;19.80;48.30
30148;DHT22;16960;49.404;8.248;2022-11-15T02:04:28;19.80;48.20
30148;DHT22;16960;49.404;8.248;2022-11-15T02:06:56;19.80;48.30
30148;DHT22;16960;49.404;8.248;2022-11-15T02:09:24;19.80;48.20
30148;DHT22;16960;49.404;8.248;2022-11-15T02:11:51;19.80;48.30
30148;DHT22;16960;49.404;8.248;2022-11-15T02:14:23;19.80;48.20
30148;DHT22;16960;49.404;8.248;2022-11-15T02:16:56;19.80;48.30
30148;DHT22;16960;49.404;8.248;2022-11-15T02:19:39;19.80;48.20
30148;DHT22;16960;49.404;8.248;2022-11-15T02:22:19;19.70;48.90
30148;DHT22;16960;49.404;8.248;2022-11-15T02:25:01;19.80;48.20
30148;DHT22;16960;49.404;8.248;2022-11-15T02:27:42;19.70;48.30
30148;DHT22;16960;49.404;8.248;2022-11-15T02:30:23;19.70;48.20
30148;DHT22;16960;49.404;8.248;2022-11-15T02:32:53;19.70;48.30
30148;DHT22;16960;49.404;8.248;2022-11-15T02:35:29;19.80;48.30
30148;DHT22;16960;49.404;8.248;2022-11-15T02:37:59;19.70;48.60
30148;DHT22;16960;49.404;8.248;2022-11-15T02:40:37;19.80;48.30
30148;DHT22;16960;49.404;8.248;2022-11-15T02:43:09;19.70;48.20
30148;DHT22;16960;49.404;8.248;2022-11-15T02:46:00;19.70;48.20
30148;DHT22;16960;49.404;8.248;2022-11-15T02:48:28;19.70;48.20
30148;DHT22;16960;49.404;8.248;2022-11-15T02:50:57;19.70;48.20
30148;DHT22;16960;49.404;8.248;2022-11-15T02:53:25;19.70;48.30
30148;DHT22;16960;49.404;8.248;2022-11-15T02:55:53;19.70;48.30
30148;DHT22;16960;49.404;8.248;2022-11-15T02:58:54;19.70;48.20
30148;DHT22;16960;49.404;8.248;2022-11-15T03:01:38;19.70;48.20
30148;DHT22;16960;49.404;8.248;2022-11-15T03:04:18;19.70;48.20
30148;DHT22;16960;49.404;8.248;2022-11-15T03:06:53;19.70;48.20
30148;DHT22;16960;49.404;8.248;2022-11-15T03:09:29;19.70;48.20
30148;DHT22;16960;49.404;8.248;2022-11-15T03:12:03;19.70;48.20
30148;DHT22;16960;49.404;8.248;2022-11-15T03:14:32;19.70;48.20
30148;DHT22;16960;49.404;8.248;2022-11-15T03:17:09;19.70;48.20
30148;DHT22;16960;49.404;8.248;2022-11-15T03:19:44;19.70;48.20
30148;DHT22;16960;49.404;8.248;2022-11-15T03:22:15;19.70;48.20
30148;DHT22;16960;49.404;8.248;2022-11-15T03:24:44;19.70;48.20
30148;DHT22;16960;49.404;8.248;2022-11-15T03:27:13;19.70;48.20
30148;DHT22;16960;49.404;8.248;2022-11-15T03:29:44;19.70;48.30
30148;DHT22;16960;49.404;8.248;2022-11-15T03:32:16;19.70;48.20
30148;DHT22;16960;49.404;8.248;2022-11-15T03:34:49;19.70;48.20
30148;DHT22;16960;49.404;8.248;2022-11-15T03:37:17;19.70;48.20
30148;DHT22;16960;49.404;8.248;2022-11-15T03:39:47;19.70;48.20
30148;DHT22;16960;49.404;8.248;2022-11-15T03:42:20;19.70;48.20
30148;DHT22;16960;49.404;8.248;2022-11-15T03:44:52;19.70;48.20
30148;DHT22;16960;49.404;8.248;2022-11-15T03:47:26;19.70;48.20
30148;DHT22;16960;49.404;8.248;2022-11-15T03:49:58;19.70;48.20
30148;DHT22;16960;49.404;8.248;2022-11-15T03:52:26;19.70;48.20
30148;DHT22;16960;49.404;8.248;2022-11-15T03:54:59;19.70;48.20
30148;DHT22;16960;49.404;8.248;2022-11-15T03:57:27;19.70;48.90
30148;DHT22;16960;49.404;8.248;2022-11-15T03:59:54;19.70;48.20
30148;DHT22;16960;49.404;8.248;2022-11-15T04:02:22;19.70;48.20
30148;DHT22;16960;49.404;8.248;2022-11-15T04:04:49;19.60;48.10
30148;DHT22;16960;49.404;8.248;2022-11-15T04:07:16;19.70;48.20
30148;DHT22;16960;49.404;8.248;2022-11-15T04:09:43;19.70;48.20
30148;DHT22;16960;49.404;8.248;2022-11-15T04:12:27;19.60;48.10
30148;DHT22;16960;49.404;8.248;2022-11-15T04:14:58;19.60;48.10
30148;DHT22;16960;49.404;8.248;2022-11-15T04:17:38;19.60;48.10
30148;DHT22;16960;49.404;8.248;2022-11-15T04:20:07;19.60;48.10
30148;DHT22;16960;49.404;8.248;2022-11-15T04:22:53;19.60;48.10
30148;DHT22;16960;49.404;8.248;2022-11-15T04:25:37;19.60;48.10
30148;DHT22;16960;49.404;8.248;2022-11-15T04:28:04;19.60;48.10
30148;DHT22;16960;49.404;8.248;2022-11-15T04:30:31;19.70;48.20
30148;DHT22;16960;49.404;8.248;2022-11-15T04:32:59;19.60;48.10
30148;DHT22;16960;49.404;8.248;2022-11-15T04:35:27;19.60;48.20
30148;DHT22;16960;49.404;8.248;2022-11-15T04:37:56;19.60;48.10
30148;DHT22;16960;49.404;8.248;2022-11-15T04:40:23;19.60;48.20
30148;DHT22;16960;49.404;8.248;2022-11-15T04:42:50;19.60;48.20
30148;DHT22;16960;49.404;8.248;2022-11-15T04:45:17;19.60;48.20
30148;DHT22;16960;49.404;8.248;2022-11-15T04:47:44;19.60;48.20
30148;DHT22;16960;49.404;8.248;2022-11-15T04:50:13;19.60;48.20
30148;DHT22;16960;49.404;8.248;2022-11-15T04:52:41;19.60;48.20
30148;DHT22;16960;49.404;8.248;2022-11-15T04:55:09;19.60;48.20
30148;DHT22;16960;49.404;8.248;2022-11-15T04:57:36;19.60;48.20
30148;DHT22;16960;49.404;8.248;2022-11-15T05:00:04;19.60;48.20
30148;DHT22;16960;49.404;8.248;2022-11-15T05:02:32;19.60;48.20
30148;DHT22;16960;49.404;8.248;2022-11-15T05:05:14;19.60;48.20
30148;DHT22;16960;49.404;8.248;2022-11-15T05:07:41;19.60;48.20
30148;DHT22;16960;49.404;8.248;2022-11-15T05:10:08;19.60;48.20
30148;DHT22;16960;49.404;8.248;2022-11-15T05:12:35;19.60;48.10
30148;DHT22;16960;49.404;8.248;2022-11-15T05:15:03;19.60;48.20
30148;DHT22;16960;49.404;8.248;2022-11-15T05:17:30;19.60;48.20
30148;DHT22;16960;49.404;8.248;2022-11-15T05:19:57;19.70;48.30
30148;DHT22;16960;49.404;8.248;2022-11-15T05:22:25;19.60;48.20
30148;DHT22;16960;49.404;8.248;2022-11-15T05:24:52;19.60;48.20
30148;DHT22;16960;49.404;8.248;2022-11-15T05:27:19;19.60;48.20
30148;DHT22;16960;49.404;8.248;2022-11-15T05:29:46;19.60;48.20
30148;DHT22;16960;49.404;8.248;2022-11-15T05:32:13;19.60;48.20
30148;DHT22;16960;49.404;8.248;2022-11-15T05:34:40;19.60;48.20
30148;DHT22;16960;49.404;8.248;2022-11-15T05:37:07;19.60;48.20
30148;DHT22;16960;49.404;8.248;2022-11-15T05:39:35;19.60;48.20
30148;DHT22;16960;49.404;8.248;2022-11-15T05:42:07;19.60;48.30
30148;DHT22;16960;49.404;8.248;2022-11-15T05:44:36;19.60;48.20
30148;DHT22;16960;49.404;8.248;2022-11-15T05:47:05;19.70;48.20
30148;DHT22;16960;49.404;8.248;2022-11-15T05:49:35;19.80;48.20
30148;DHT22;16960;49.404;8.248;2022-11-15T05:52:05;19.80;48.10
30148;DHT22;16960;49.404;8.248;2022-11-15T05:54:37;19.80;48.10
30148;DHT22;16960;49.404;8.248;2022-11-15T05:57:04;19.80;48.00
30148;DHT22;16960;49.404;8.248;2022-11-15T05:59:31;19.90;48.10
30148;DHT22;16960;49.404;8.248;2022-11-15T06:01:59;19.90;48.00
30148;DHT22;16960;49.404;8.248;2022-11-15T06:04:26;19.90;48.00
30148;DHT22;16960;49.404;8.248;2022-11-15T06:06:53;19.90;48.00
30148;DHT22;16960;49.404;8.248;2022-11-15T06:09:19;19.90;48.00
30148;DHT22;16960;49.404;8.248;2022-11-15T06:11:48;20.00;47.90
30148;DHT22;16960;49.404;8.248;2022-11-15T06:14:15;20.00;47.90
30148;DHT22;16960;49.404;8.248;2022-11-15T06:16:42;20.00;48.00
30148;DHT22;16960;49.404;8.248;2022-11-15T06:19:08;20.00;48.00
30148;DHT22;16960;49.404;8.248;2022-11-15T06:21:35;20.00;47.90
30148;DHT22;16960;49.404;8.248;2022-11-15T06:24:03;20.00;48.00
30148;DHT22;16960;49.404;8.248;2022-11-15T06:26:30;20.00;47.90
30148;DHT22;16960;49.404;8.248;2022-11-15T06:28:58;20.00;48.00
30148;DHT22;16960;49.404;8.248;2022-11-15T06:31:25;20.00;47.90
30148;DHT22;16960;49.404;8.248;2022-11-15T06:33:52;20.00;47.90
30148;DHT22;16960;49.404;8.248;2022-11-15T06:36:19;20.00;48.00
30148;DHT22;16960;49.404;8.248;2022-11-15T06:38:46;20.00;48.00
30148;DHT22;16960;49.404;8.248;2022-11-15T06:41:14;20.00;48.00
30148;DHT22;16960;49.404;8.248;2022-11-15T06:43:42;20.00;48.00
30148;DHT22;16960;49.404;8.248;2022-11-15T06:46:10;20.00;48.00
30148;DHT22;16960;49.404;8.248;2022-11-15T06:48:37;20.10;48.20
30148;DHT22;16960;49.404;8.248;2022-11-15T06:51:05;20.10;48.30
30148;DHT22;16960;49.404;8.248;2022-11-15T06:53:33;20.10;48.30
30148;DHT22;16960;49.404;8.248;2022-11-15T06:56:00;20.10;48.20
30148;DHT22;16960;49.404;8.248;2022-11-15T06:58:27;20.10;48.10
30148;DHT22;16960;49.404;8.248;2022-11-15T07:00:58;20.10;48.00
30148;DHT22;16960;49.404;8.248;2022-11-15T07:03:27;20.10;47.90
30148;DHT22;16960;49.404;8.248;2022-11-15T07:05:55;20.10;47.80
30148;DHT22;16960;49.404;8.248;2022-11-15T07:08:23;20.20;47.70
30148;DHT22;16960;49.404;8.248;2022-11-15T07:10:50;20.20;47.60
30148;DHT22;16960;49.404;8.248;2022-11-15T07:13:17;20.20;47.50
30148;DHT22;16960;49.404;8.248;2022-11-15T07:15:44;20.20;47.30
30148;DHT22;16960;49.404;8.248;2022-11-15T07:18:11;20.20;47.80
30148;DHT22;16960;49.404;8.248;2022-11-15T07:20:39;20.20;47.80
30148;DHT22;16960;49.404;8.248;2022-11-15T07:23:06;20.30;48.10
30148;DHT22;16960;49.404;8.248;2022-11-15T07:25:33;20.30;48.10
30148;DHT22;16960;49.404;8.248;2022-11-15T07:28:00;20.30;47.90
30148;DHT22;16960;49.404;8.248;2022-11-15T07:30:27;20.30;47.80
30148;DHT22;16960;49.404;8.248;2022-11-15T07:32:55;20.30;47.60
30148;DHT22;16960;49.404;8.248;2022-11-15T07:35:22;20.30;47.60
30148;DHT22;16960;49.404;8.248;2022-11-15T07:37:57;20.30;47.50
30148;DHT22;16960;49.404;8.248;2022-11-15T07:40:25;20.40;47.40
30148;DHT22;16960;49.404;8.248;2022-11-15T07:42:58;20.40;47.30
30148;DHT22;16960;49.404;8.248;2022-11-15T07:45:25;20.50;47.40
30148;DHT22;16960;49.404;8.248;2022-11-15T07:47:53;20.50;47.30
30148;DHT22;16960;49.404;8.248;2022-11-15T07:50:21;20.50;47.20
30148;DHT22;16960;49.404;8.248;2022-11-15T07:52:53;20.50;47.20
30148;DHT22;16960;49.404;8.248;2022-11-15T07:55:21;20.50;47.20
30148;DHT22;16960;49.404;8.248;2022-11-15T07:57:49;20.50;47.20
30148;DHT22;16960;49.404;8.248;2022-11-15T08:00:17;20.50;47.10
30148;DHT22;16960;49.404;8.248;2022-11-15T08:02:45;20.60;47.00
30148;DHT22;16960;49.404;8.248;2022-11-15T08:05:12;20.60;47.00
30148;DHT22;16960;49.404;8.248;2022-11-15T08:07:39;20.70;47.00
30148;DHT22;16960;49.404;8.248;2022-11-15T08:10:07;20.70;47.10
30148;DHT22;16960;49.404;8.248;2022-11-15T08:12:36;20.70;46.90
30148;DHT22;16960;49.404;8.248;2022-11-15T08:15:03;20.70;46.80
30148;DHT22;16960;49.404;8.248;2022-11-15T08:17:30;20.70;46.80
30148;DHT22;16960;49.404;8.248;2022-11-15T08:19:59;20.70;46.70
30148;DHT22;16960;49.404;8.248;2022-11-15T08:22:26;20.80;46.60
30148;DHT22;16960;49.404;8.248;2022-11-15T08:24:53;20.80;46.60
30148;DHT22;16960;49.404;8.248;2022-11-15T08:27:20;20.80;46.60
30148;DHT22;16960;49.404;8.248;2022-11-15T08:29:48;20.80;46.60
30148;DHT22;16960;49.404;8.248;2022-11-15T08:32:15;20.80;46.50
30148;DHT22;16960;49.404;8.248;2022-11-15T08:34:43;20.80;46.50
30148;DHT22;16960;49.404;8.248;2022-11-15T08:37:10;20.80;46.30
30148;DHT22;16960;49.404;8.248;2022-11-15T08:39:37;20.80;46.40
30148;DHT22;16960;49.404;8.248;2022-11-15T08:42:04;20.90;46.60
30148;DHT22;16960;49.404;8.248;2022-11-15T08:44:31;20.90;46.60
30148;DHT22;16960;49.404;8.248;2022-11-15T08:46:59;20.90;46.60
30148;DHT22;16960;49.404;8.248;2022-11-15T08:49:26;20.90;46.50
30148;DHT22;16960;49.404;8.248;2022-11-15T08:51:53;21.00;46.40
30148;DHT22;16960;49.404;8.248;2022-11-15T08:54:20;21.00;46.30
30148;DHT22;16960;49.404;8.248;2022-11-15T08:56:47;21.00;46.30
30148;DHT22;16960;49.404;8.248;2022-11-15T08:59:14;21.00;46.30
30148;DHT22;16960;49.404;8.248;2022-11-15T09:01:41;21.00;46.30
30148;DHT22;16960;49.404;8.248;2022-11-15T09:04:09;21.00;46.50
30148;DHT22;16960;49.404;8.248;2022-11-15T09:06:36;21.00;46.40
30148;DHT22;16960;49.404;8.248;2022-11-15T09:09:03;21.10;46.50
30148;DHT22;16960;49.404;8.248;2022-11-15T09:11:30;21.10;46.60
30148;DHT22;16960;49.404;8.248;2022-11-15T09:13:57;21.10;46.50
30148;DHT22;16960;49.404;8.248;2022-11-15T09:16:24;21.10;46.50
30148;DHT22;16960;49.404;8.248;2022-11-15T09:18:52;21.10;46.50
30148;DHT22;16960;49.404;8.248;2022-11-15T09:21:21;21.20;46.50
30148;DHT22;16960;49.404;8.248;2022-11-15T09:23:50;21.20;46.40
30148;DHT22;16960;49.404;8.248;2022-11-15T09:26:18;21.20;46.40
30148;DHT22;16960;49.404;8.248;2022-11-15T09:28:45;21.20;46.40
30148;DHT22;16960;49.404;8.248;2022-11-15T09:31:12;21.20;46.40
30148;DHT22;16960;49.404;8.248;2022-11-15T09:33:39;21.30;46.40
30148;DHT22;16960;49.404;8.248;2022-11-15T09:36:08;21.30;46.30
30148;DHT22;16960;49.404;8.248;2022-11-15T09:38:37;21.30;46.20
30148;DHT22;16960;49.404;8.248;2022-11-15T09:41:33;21.30;46.20
30148;DHT22;16960;49.404;8.248;2022-11-15T09:44:12;21.40;46.20
30148;DHT22;16960;49.404;8.248;2022-11-15T09:46:48;21.30;46.20
30148;DHT22;16960;49.404;8.248;2022-11-15T09:49:19;21.30;46.20
30148;DHT22;16960;49.404;8.248;2022-11-15T09:51:49;21.40;46.20
30148;DHT22;16960;49.404;8.248;2022-11-15T09:54:25;21.40;46.20
30148;DHT22;16960;49.404;8.248;2022-11-15T09:56:53;21.30;46.20
30148;DHT22;16960;49.404;8.248;2022-11-15T09:59:41;21.40;46.20
30148;DHT22;16960;49.404;8.248;2022-11-15T10:02:19;21.40;46.20
30148;DHT22;16960;49.404;8.248;2022-11-15T10:04:49;21.40;46.20
30148;DHT22;16960;49.404;8.248;2022-11-15T10:07:21;21.40;46.10
30148;DHT22;16960;49.404;8.248;2022-11-15T10:09:54;21.40;46.00
30148;DHT22;16960;49.404;8.248;2022-11-15T10:12:23;21.40;46.10
30148;DHT22;16960;49.404;8.248;2022-11-15T10:14:58;21.40;46.10
30148;DHT22;16960;49.404;8.248;2022-11-15T10:17:46;21.40;46.10
30148;DHT22;16960;49.404;8.248;2022-11-15T10:20:21;21.50;46.20
30148;DHT22;16960;49.404;8.248;2022-11-15T10:22:50;21.50;46.20
30148;DHT22;16960;49.404;8.248;2022-11-15T10:25:24;21.50;46.10
30148;DHT22;16960;49.404;8.248;2022-11-15T10:27:54;21.50;46.10
30148;DHT22;16960;49.404;8.248;2022-11-15T10:30:23;21.50;46.10
30148;DHT22;16960;49.404;8.248;2022-11-15T10:32:55;21.50;46.10
30148;DHT22;16960;49.404;8.248;2022-11-15T10:35:24;21.50;46.10
30148;DHT22;16960;49.404;8.248;2022-11-15T10:37:52;21.50;46.00
30148;DHT22;16960;49.404;8.248;2022-11-15T10:40:32;21.50;45.90
30148;DHT22;16960;49.404;8.248;2022-11-15T10:43:05;21.60;45.70
30148;DHT22;16960;49.404;8.248;2022-11-15T10:45:33;21.60;45.70
30148;DHT22;16960;49.404;8.248;2022-11-15T10:48:21;21.70;45.80
30148;DHT22;16960;49.404;8.248;2022-11-15T10:50:50;21.70;45.80
30148;DHT22;16960;49.404;8.248;2022-11-15T10:53:26;21.70;45.80
30148;DHT22;16960;49.404;8.248;2022-11-15T10:56:00;21.80;45.70
30148;DHT22;16960;49.404;8.248;2022-11-15T10:58:34;21.80;45.60
30148;DHT22;16960;49.404;8.248;2022-11-15T11:01:14;21.80;45.60
30148;DHT22;16960;49.404;8.248;2022-11-15T11:03:43;21.80;45.50
30148;DHT22;16960;49.404;8.248;2022-11-15T11:06:12;21.80;45.50
30148;DHT22;16960;49.404;8.248;2022-11-15T11:08:39;21.90;45.60
30148;DHT22;16960;49.404;8.248;2022-11-15T11:11:08;21.90;45.50
30148;DHT22;16960;49.404;8.248;2022-11-15T11:13:36;21.90;45.40
30148;DHT22;16960;49.404;8.248;2022-11-15T11:16:30;21.90;45.30
30148;DHT22;16960;49.404;8.248;2022-11-15T11:19:08;21.90;46.00
30148;DHT22;16960;49.404;8.248;2022-11-15T11:21:43;22.00;45.20
30148;DHT22;16960;49.404;8.248;2022-11-15T11:24:19;22.00;45.00
30148;DHT22;16960;49.404;8.248;2022-11-15T11:27:06;22.00;45.00
30148;DHT22;16960;49.404;8.248;2022-11-15T11:29:45;22.10;45.00
30148;DHT22;16960;49.404;8.248;2022-11-15T11:32:30;22.10;45.00
30148;DHT22;16960;49.404;8.248;2022-11-15T11:35:11;22.10;44.90
30148;DHT22;16960;49.404;8.248;2022-11-15T11:37:44;22.10;44.90
30148;DHT22;16960;49.404;8.248;2022-11-15T11:40:20;22.20;44.90
30148;DHT22;16960;49.404;8.248;2022-11-15T11:42:55;22.10;44.90
30148;DHT22;16960;49.404;8.248;2022-11-15T11:45:47;22.20;44.90
30148;DHT22;16960;49.404;8.248;2022-11-15T11:48:27;22.20;45.10
30148;DHT22;16960;49.404;8.248;2022-11-15T11:51:01;22.20;44.80
30148;DHT22;16960;49.404;8.248;2022-11-15T11:53:35;22.20;44.80
30148;DHT22;16960;49.404;8.248;2022-11-15T11:56:11;22.20;44.90
30148;DHT22;16960;49.404;8.248;2022-11-15T11:58:44;22.10;45.00
30148;DHT22;16960;49.404;8.248;2022-11-15T12:01:16;22.20;45.10
30148;DHT22;16960;49.404;8.248;2022-11-15T12:03:47;22.20;45.10
30148;DHT22;16960;49.404;8.248;2022-11-15T12:06:23;22.10;45.10
30148;DHT22;16960;49.404;8.248;2022-11-15T12:08:56;22.10;45.10
30148;DHT22;16960;49.404;8.248;2022-11-15T12:11:29;22.10;45.10
30148;DHT22;16960;49.404;8.248;2022-11-15T12:14:00;22.10;45.50
30148;DHT22;16960;49.404;8.248;2022-11-15T12:16:29;22.10;45.60
30148;DHT22;16960;49.404;8.248;2022-11-15T12:19:01;22.10;46.30
30148;DHT22;16960;49.404;8.248;2022-11-15T12:21:34;22.20;45.60
30148;DHT22;16960;49.404;8.248;2022-11-15T12:24:06;22.20;45.40
30148;DHT22;16960;49.404;8.248;2022-11-15T12:26:38;22.20;45.50
30148;DHT22;16960;49.404;8.248;2022-11-15T12:29:11;22.20;45.40
30148;DHT22;16960;49.404;8.248;2022-11-15T12:31:43;22.20;45.40
30148;DHT22;16960;49.404;8.248;2022-11-15T12:34:30;22.30;45.40
30148;DHT22;16960;49.404;8.248;2022-11-15T12:37:01;22.30;45.40
30148;DHT22;16960;49.404;8.248;2022-11-15T12:40:16;22.30;45.30
30148;DHT22;16960;49.404;8.248;2022-11-15T12:43:01;22.40;45.30
30148;DHT22;16960;49.404;8.248;2022-11-15T12:45:31;22.40;45.30
30148;DHT22;16960;49.404;8.248;2022-11-15T12:51:02;22.40;45.20
30148;DHT22;16960;49.404;8.248;2022-11-15T12:53:30;22.40;45.20
30148;DHT22;16960;49.404;8.248;2022-11-15T12:56:20;22.40;45.20
30148;DHT22;16960;49.404;8.248;2022-11-15T12:58:49;22.40;45.30
30148;DHT22;16960;49.404;8.248;2022-11-15T13:04:27;22.50;45.30
30148;DHT22;16960;49.404;8.248;2022-11-15T13:06:55;22.50;45.30
30148;DHT22;16960;49.404;8.248;2022-11-15T13:09:56;22.50;45.20
30148;DHT22;16960;49.404;8.248;2022-11-15T13:12:51;22.50;45.20
30148;DHT22;16960;49.404;8.248;2022-11-15T13:15:55;22.60;45.20
30148;DHT22;16960;49.404;8.248;2022-11-15T13:18:30;22.60;45.10
30148;DHT22;16960;49.404;8.248;2022-11-15T13:20:59;22.60;45.00
30148;DHT22;16960;49.404;8.248;2022-11-15T13:23:26;22.60;45.10
30148;DHT22;16960;49.404;8.248;2022-11-15T13:26:12;22.60;45.10
30148;DHT22;16960;49.404;8.248;2022-11-15T13:28:43;22.60;45.00
30148;DHT22;16960;49.404;8.248;2022-11-15T13:31:36;22.60;45.00
30148;DHT22;16960;49.404;8.248;2022-11-15T13:34:16;22.60;45.00
30148;DHT22;16960;49.404;8.248;2022-11-15T13:36:44;22.60;45.00
30148;DHT22;16960;49.404;8.248;2022-11-15T13:39:25;22.60;45.00
30148;DHT22;16960;49.404;8.248;2022-11-15T13:41:52;22.70;45.00
30148;DHT22;16960;49.404;8.248;2022-11-15T13:44:21;22.70;45.00
30148;DHT22;16960;49.404;8.248;2022-11-15T13:46:48;22.70;45.10
30148;DHT22;16960;49.404;8.248;2022-11-15T13:49:29;22.70;45.00
30148;DHT22;16960;49.404;8.248;2022-11-15T13:51:59;22.70;44.90
30148;DHT22;16960;49.404;8.248;2022-11-15T13:54:30;22.70;44.90
30148;DHT22;16960;49.404;8.248;2022-11-15T13:56:59;22.70;44.80
30148;DHT22;16960;49.404;8.248;2022-11-15T13:59:30;22.80;44.70
30148;DHT22;16960;49.404;8.248;2022-11-15T14:01:59;22.70;44.80
30148;DHT22;16960;49.404;8.248;2022-11-15T14:04:28;22.70;44.80
30148;DHT22;16960;49.404;8.248;2022-11-15T14:07:01;22.70;44.80
30148;DHT22;16960;49.404;8.248;2022-11-15T14:09:35;22.70;44.80
30148;DHT22;16960;49.404;8.248;2022-11-15T14:12:30;22.70;44.90
30148;DHT22;16960;49.404;8.248;2022-11-15T14:14:58;22.70;45.00
30148;DHT22;16960;49.404;8.248;2022-11-15T14:17:37;22.60;44.80
30148;DHT22;16960;49.404;8.248;2022-11-15T14:20:20;22.60;45.60
30148;DHT22;16960;49.404;8.248;2022-11-15T14:22:56;22.60;44.90
30148;DHT22;16960;49.404;8.248;2022-11-15T14:25:24;22.60;44.90
30148;DHT22;16960;49.404;8.248;2022-11-15T14:28:12;22.60;45.00
30148;DHT22;16960;49.404;8.248;2022-11-15T14:30:41;22.60;45.00
30148;DHT22;16960;49.404;8.248;2022-11-15T14:33:22;22.50;45.60
30148;DHT22;16960;49.404;8.248;2022-11-15T14:35:49;22.50;45.00
30148;DHT22;16960;49.404;8.248;2022-11-15T14:38:18;22.50;45.00
30148;DHT22;16960;49.404;8.248;2022-11-15T14:40:45;22.50;45.30
30148;DHT22;16960;49.404;8.248;2022-11-15T14:43:13;22.40;45.10
30148;DHT22;16960;49.404;8.248;2022-11-15T14:45:40;22.40;45.20
30148;DHT22;16960;49.404;8.248;2022-11-15T14:48:07;22.40;45.20
30148;DHT22;16960;49.404;8.248;2022-11-15T14:50:35;22.40;45.10
30148;DHT22;16960;49.404;8.248;2022-11-15T14:53:02;22.40;45.20
30148;DHT22;16960;49.404;8.248;2022-11-15T14:55:32;22.40;45.10
30148;DHT22;16960;49.404;8.248;2022-11-15T14:58:01;22.30;45.20
30148;DHT22;16960;49.404;8.248;2022-11-15T15:00:29;22.30;45.30
30148;DHT22;16960;49.404;8.248;2022-11-15T15:02:56;22.30;45.30
30148;DHT22;16960;49.404;8.248;2022-11-15T15:05:25;22.20;45.30
30148;DHT22;16960;49.404;8.248;2022-11-15T15:07:52;22.20;45.30
30148;DHT22;16960;49.404;8.248;2022-11-15T15:10:19;22.20;45.50
30148;DHT22;16960;49.404;8.248;2022-11-15T15:12:48;22.20;45.60
30148;DHT22;16960;49.404;8.248;2022-11-15T15:15:17;22.20;45.60
30148;DHT22;16960;49.404;8.248;2022-11-15T15:17:46;22.20;45.70
30148;DHT22;16960;49.404;8.248;2022-11-15T15:20:13;22.20;45.70
30148;DHT22;16960;49.404;8.248;2022-11-15T15:22:40;22.20;45.70
30148;DHT22;16960;49.404;8.248;2022-11-15T15:25:26;22.20;45.80
30148;DHT22;16960;49.404;8.248;2022-11-15T15:27:55;22.20;45.80
30148;DHT22;16960;49.404;8.248;2022-11-15T15:30:22;22.20;45.80
30148;DHT22;16960;49.404;8.248;2022-11-15T15:32:49;22.20;45.70
30148;DHT22;16960;49.404;8.248;2022-11-15T15:35:17;22.20;45.70
30148;DHT22;16960;49.404;8.248;2022-11-15T15:37:45;22.10;45.80
30148;DHT22;16960;49.404;8.248;2022-11-15T15:40:15;22.20;45.90
30148;DHT22;16960;49.404;8.248;2022-11-15T15:42:43;22.10;45.90
30148;DHT22;16960;49.404;8.248;2022-11-15T15:45:11;22.20;45.90
30148;DHT22;16960;49.404;8.248;2022-11-15T15:47:39;22.10;45.80
30148;DHT22;16960;49.404;8.248;2022-11-15T15:50:17;22.10;45.90
30148;DHT22;16960;49.404;8.248;2022-11-15T15:52:46;22.10;45.80
30148;DHT22;16960;49.404;8.248;2022-11-15T15:55:13;22.10;45.80
30148;DHT22;16960;49.404;8.248;2022-11-15T15:57:40;22.20;45.80
30148;DHT22;16960;49.404;8.248;2022-11-15T16:00:11;22.10;45.80
30148;DHT22;16960;49.404;8.248;2022-11-15T16:02:38;22.10;45.70